Flight Track Log - Related Links

Times and Time Zones

All times are in EDT time to prevent confusion due to time zone crossing. See the SWA1323 flight status page for this flight to view local times or setup timezone preferences in your user account.

Time Position Orientation Groundspeed Altitude Reporting Facility
EDT Latitude Longitude Course Direction KTS MPH feet Rate Location/Type
Sat 09:51:20 PM 39.4500 -119.7667 182° South 200 230 7,000  Level Northern Cal TRACON
Sat 09:53:02 PM 39.3386 -119.7708 182° South 249 287 12,000 2,687 Climbing Oakland Center
Sat 09:54:03 PM 39.2453 -119.7781 183° South 317 365 14,300 2,803 Climbing Oakland Center
Sat 09:55:04 PM 39.1353 -119.7722 178° South 386 444 17,700 3,098 Climbing Oakland Center
Sat 09:56:05 PM 39.0239 -119.7656 177° South 399 459 20,600 2,607 Climbing Oakland Center
Sat 09:57:06 PM 38.9036 -119.7586 177° South 425 489 23,000 2,380 Climbing Oakland Center
Sat 09:58:06 PM 38.7806 -119.7522 178° South 440 506 25,400 2,529 Climbing Oakland Center
Sat 09:59:07 PM 38.6544 -119.7456 178° South 450 518 28,100 2,951 Climbing Oakland Center
Sat 10:00:08 PM 38.5097 -119.7389 178° South 441 507 31,400 2,754 Climbing Oakland Center
Sat 10:01:09 PM 38.4053 -119.7342 178° South 435 501 33,700 1,770 Climbing Oakland Center
Sat 10:02:10 PM 38.2894 -119.7278 178° South 422 486 35,000 639 Climbing Oakland Center
Sat 10:03:11 PM 38.1758 -119.7142 175° South 413 475 35,000 443 Level Oakland Center
Sat 10:04:12 PM 38.0692 -119.6625 159° South 410 472 35,900 1,475 Climbing Oakland Center
Sat 10:05:13 PM 37.9597 -119.6125 160° South 415 478 38,000 1,918 Climbing Oakland Center
Sat 10:06:14 PM 37.8242 -119.6078 178° South 404 465 39,800 1,426 Climbing Oakland Center
Sat 10:07:15 PM 37.7136 -119.6083 180° South 398 458 40,900 590 Climbing Oakland Center
Sat 10:08:16 PM 37.5992 -119.6081 180° South 407 468 41,000  Climbing Oakland Center
Sat 10:09:17 PM 37.4819 -119.6097 181° South 418 481 40,900  Descending Oakland Center
Sat 10:10:18 PM 37.3656 -119.6086 180° South 418 481 41,000 -344 Climbing Oakland Center
Sat 10:11:19 PM 37.2622 -119.6100 181° South 418 481 40,200 -836 Descending Oakland Center
Sat 10:12:20 PM 37.1447 -119.6100 180° South 421 484 39,300 -590 Descending Oakland Center
Sat 10:13:21 PM 37.0047 -119.6106 180° South 419 482 39,000 -148 Descending Oakland Center
Sat 10:14:22 PM 36.8886 -119.6108 180° South 418 481 39,000  Level Oakland Center
Sat 10:15:23 PM 36.7714 -119.6122 181° South 421 484 39,000  Level Oakland Center
Sat 10:16:24 PM 36.6542 -119.6139 181° South 420 483 39,000  Level Oakland Center
Sat 10:17:25 PM 36.5375 -119.6144 180° South 419 482 39,000  Level Oakland Center
Sat 10:18:26 PM 36.4197 -119.6139 180° South 421 484 39,000  Level Oakland Center
Sat 10:19:27 PM 36.3028 -119.6144 180° South 419 482 39,000  Level Oakland Center
Sat 10:20:28 PM 36.1858 -119.6147 180° South 418 481 39,000  Level Oakland Center
Sat 10:21:29 PM 36.0678 -119.6142 180° South 422 486 39,000  Level Oakland Center
Sat 10:22:30 PM 35.9506 -119.6147 180° South 420 483 39,000  Level Oakland Center
Sat 10:23:31 PM 35.8342 -119.6206 182° South 416 479 39,000  Level Oakland Center
Sat 10:24:32 PM 35.7161 -119.6061 174° South 423 487 39,000  Level Oakland Center
Sat 10:25:23 PM 35.6228 -119.5869 171° South 424 488 39,000  Level Los Angeles Center
Sat 10:26:25 PM 35.4825 -119.5567 170° South 423 487 39,000  Level Los Angeles Center
Sat 10:27:27 PM 35.3656 -119.5317 170° South 424 488 39,000  Level Los Angeles Center
Sat 10:28:28 PM 35.2528 -119.4878 162° South 424 488 39,000  Level Los Angeles Center
Sat 10:29:42 PM 35.1442 -119.4222 154° Southeast 432 497 39,000 -933 Level Los Angeles Center
Sat 10:30:43 PM 35.0136 -119.3461 154° Southeast 432 497 36,900 -2,780 Descending Los Angeles Center
Sat 10:31:45 PM 34.9086 -119.2822 153° Southeast 425 489 33,300 -3,610 Descending Los Angeles Center
Sat 10:32:46 PM 34.7997 -119.2161 153° Southeast 435 501 29,500 -3,610 Descending Los Angeles Center
Sat 10:33:48 PM 34.6683 -119.1397 154° Southeast 434 499 25,900 -3,122 Descending Los Angeles Center
Sat 10:34:49 PM 34.5717 -119.0625 147° Southeast 440 506 23,100 -2,683 Descending Los Angeles Center
Sat 10:35:51 PM 34.4597 -119.0361 169° South 413 475 20,400 -2,439 Descending Los Angeles Center
Sat 10:36:52 PM 34.3517 -119.0303 177° South 392 451 18,100 -2,488 Descending Los Angeles Center
Sat 10:37:54 PM 34.2447 -119.0258 178° South 391 450 15,300 -1,512 Descending Los Angeles Center
Sat 10:38:55 PM 34.1436 -119.0092 172° South 379 436 15,000 -146 Descending Los Angeles Center
Sat 10:39:57 PM 34.0956 -118.9061 119° Southeast 353 406 15,000 -706 Level Los Angeles Center
Sat 10:41:11 PM 34.0492 -118.7906 116° Southeast 317 365 13,400 -1,333 Descending Los Angeles Center
Sat 10:42:12 PM 34.0317 -118.6694 100° East 299 344 12,000 -1,279 Descending Los Angeles Center
Sat 10:43:13 PM 34.0228 -118.5831 97° East 257 296 10,800 -1,426 Descending Los Angeles Center
Sat 10:44:14 PM 34.0142 -118.4981 97° East 254 292 9,100 -1,707 Descending Los Angeles Center
Sat 10:45:16 PM 34.0136 -118.4192 90° East 239 275 7,300 -1,805 Descending Los Angeles Center
Sat 10:46:17 PM 34.0236 -118.3386 81° East 240 276 5,400 -1,805 Descending Los Angeles Center
Sat 10:47:19 PM 34.0311 -118.2575 84° East 241 277 3,600 -1,366 Descending Los Angeles Center
Sat 10:48:20 PM 34.0364 -118.1822 85° East 234 269 2,600 -488 Descending Los Angeles Center
Sat 10:49:22 PM 34.0025 -118.1442 137° Southeast 239 275 2,600  Level Los Angeles Center
Sat 10:50:23 PM 33.9758 -118.1997 240° Southwest 209 241 2,600 -148 Level Los Angeles Center
Sat 10:51:24 PM 33.9653 -118.2669 259° West 185 213 2,300 -537 Descending Los Angeles Center
Sat 10:52:26 PM 33.9611 -118.3172 264° West 168 193 1,500 -683 Descending Los Angeles Center
Sat 10:53:27 PM 33.9572 -118.3603 264° West 148 170 900 -634 Descending Los Angeles Center
Sat 10:54:29 PM 33.9528 -118.3992 262° West 130 150 200 -677 Descending Los Angeles Center
Sat 10:56:00 PM 33.9333 -118.4000 228° Southwest  Level FlightAware Approximate

Login

Don't have an account? Register now (free) for customized features, flight alerts, and more!